createdAt,value
2023-05-04T00:00:39.262Z,463.00
2023-05-04T00:01:39.306Z,460.00
2023-05-04T00:02:39.390Z,457.00
2023-05-04T00:03:39.450Z,457.00
2023-05-04T00:04:39.391Z,461.00
2023-05-04T00:05:39.300Z,462.00
2023-05-04T00:06:39.333Z,463.00
2023-05-04T00:07:39.320Z,464.00
2023-05-04T00:08:39.320Z,463.00
2023-05-04T00:09:39.336Z,461.00
2023-05-04T00:10:39.322Z,462.00
2023-05-04T00:11:39.336Z,465.00
2023-05-04T00:12:39.401Z,466.00
2023-05-04T00:13:39.309Z,468.00
2023-05-04T00:14:39.296Z,468.00
2023-05-04T00:15:39.309Z,469.00
2023-05-04T00:16:39.392Z,470.00
2023-05-04T00:17:39.363Z,472.00
2023-05-04T00:18:39.290Z,473.00
2023-05-04T00:19:39.335Z,474.00
2023-05-04T00:20:39.289Z,477.00
2023-05-04T00:21:39.302Z,478.00
2023-05-04T00:22:39.307Z,478.00
2023-05-04T00:23:39.319Z,478.00
2023-05-04T00:24:39.322Z,475.00
2023-05-04T00:25:39.325Z,476.00
2023-05-04T00:26:39.404Z,476.00
2023-05-04T00:27:39.387Z,475.00
2023-05-04T00:28:39.389Z,473.00
2023-05-04T00:29:39.411Z,474.00
2023-05-04T00:30:39.471Z,476.00
2023-05-04T00:31:39.551Z,477.00
2023-05-04T00:32:39.606Z,480.00
2023-05-04T00:33:39.541Z,479.00
2023-05-04T00:34:39.649Z,478.00
2023-05-04T00:35:39.691Z,478.00
2023-05-04T00:36:39.728Z,477.00
2023-05-04T00:37:39.820Z,475.00
2023-05-04T00:38:39.908Z,474.00
2023-05-04T00:39:40.045Z,474.00
2023-05-04T00:40:39.945Z,472.00
2023-05-04T00:41:40.048Z,471.00
2023-05-04T00:42:40.078Z,471.00
2023-05-04T00:43:40.143Z,472.00
2023-05-04T00:44:40.200Z,470.00
2023-05-04T00:45:40.234Z,467.00
2023-05-04T00:46:40.266Z,464.00
2023-05-04T00:47:40.337Z,461.00
2023-05-04T00:48:40.307Z,459.00
2023-05-04T00:49:40.387Z,456.00
2023-05-04T00:50:40.443Z,456.00
2023-05-04T00:51:40.452Z,454.00
2023-05-04T00:52:40.499Z,452.00
2023-05-04T00:53:40.462Z,451.00
2023-05-04T00:54:40.512Z,450.00
2023-05-04T00:55:40.523Z,450.00
2023-05-04T00:56:40.470Z,449.00
2023-05-04T00:57:40.547Z,452.00
2023-05-04T00:58:40.499Z,453.00
2023-05-04T00:59:40.535Z,453.00
2023-05-04T01:00:40.544Z,451.00
2023-05-04T01:01:40.516Z,453.00
2023-05-04T01:02:40.533Z,455.00
2023-05-04T01:03:40.559Z,454.00
2023-05-04T01:04:40.523Z,453.00
2023-05-04T01:05:40.546Z,450.00
2023-05-04T01:06:40.549Z,448.00
2023-05-04T01:07:40.523Z,445.00
2023-05-04T01:08:40.546Z,442.00
2023-05-04T01:09:40.559Z,443.00
2023-05-04T01:10:40.565Z,445.00
2023-05-04T01:11:40.577Z,445.00
2023-05-04T01:12:40.598Z,444.00
2023-05-04T01:13:40.584Z,448.00
2023-05-04T01:14:40.541Z,447.00
2023-05-04T01:15:40.542Z,445.00
2023-05-04T01:16:40.604Z,446.00
2023-05-04T01:17:40.713Z,445.00
2023-05-04T01:18:40.620Z,443.00
2023-05-04T01:19:40.706Z,446.00
2023-05-04T01:20:40.747Z,446.00
2023-05-04T01:21:40.808Z,447.00
2023-05-04T01:22:40.805Z,447.00
2023-05-04T01:23:40.783Z,445.00
2023-05-04T01:24:40.762Z,443.00
2023-05-04T01:25:40.787Z,444.00
2023-05-04T01:26:40.795Z,444.00
2023-05-04T01:27:40.766Z,446.00
2023-05-04T01:28:40.788Z,447.00
2023-05-04T01:29:40.816Z,450.00
2023-05-04T01:30:40.842Z,452.00
2023-05-04T01:31:40.838Z,452.00
2023-05-04T01:32:40.932Z,451.00
2023-05-04T01:33:40.917Z,453.00
2023-05-04T01:34:40.955Z,453.00
2023-05-04T01:35:41.012Z,450.00
2023-05-04T01:36:41.111Z,452.00
2023-05-04T01:37:41.160Z,453.00
2023-05-04T01:38:41.161Z,454.00
2023-05-04T01:39:41.190Z,455.00
2023-05-04T01:40:41.187Z,456.00
2023-05-04T01:41:41.222Z,458.00
2023-05-04T01:42:41.196Z,460.00
2023-05-04T01:43:41.205Z,461.00
2023-05-04T01:44:41.199Z,461.00
2023-05-04T01:45:41.208Z,463.00
2023-05-04T01:46:41.393Z,462.00
2023-05-04T01:47:41.248Z,460.00
2023-05-04T01:48:41.184Z,461.00
2023-05-04T01:49:41.234Z,463.00
2023-05-04T01:50:41.258Z,462.00
2023-05-04T01:51:41.189Z,461.00
2023-05-04T01:52:41.203Z,460.00
2023-05-04T01:53:41.185Z,460.00
2023-05-04T01:54:41.203Z,462.00
2023-05-04T01:55:41.213Z,462.00
2023-05-04T01:56:41.220Z,463.00
2023-05-04T01:57:41.220Z,464.00
2023-05-04T01:58:41.209Z,463.00
2023-05-04T01:59:41.191Z,465.00
2023-05-04T02:00:41.207Z,466.00
2023-05-04T02:01:41.278Z,462.00
2023-05-04T02:02:41.275Z,461.00
2023-05-04T02:03:41.313Z,463.00
2023-05-04T02:04:41.239Z,465.00
2023-05-04T02:05:41.176Z,466.00
2023-05-04T02:06:41.193Z,466.00
2023-05-04T02:07:41.189Z,465.00
2023-05-04T02:08:41.198Z,467.00
2023-05-04T02:09:41.262Z,467.00
2023-05-04T02:10:41.225Z,470.00
2023-05-04T02:11:41.244Z,470.00
2023-05-04T02:12:41.284Z,469.00
2023-05-04T02:13:41.269Z,470.00
2023-05-04T02:14:41.426Z,470.00
2023-05-04T02:15:41.425Z,471.00
2023-05-04T02:16:41.356Z,470.00
2023-05-04T02:17:41.404Z,471.00
2023-05-04T02:18:41.373Z,476.00
2023-05-04T02:19:41.391Z,475.00
2023-05-04T02:20:41.450Z,474.00
2023-05-04T02:21:41.453Z,474.00
2023-05-04T02:22:41.484Z,473.00
2023-05-04T02:23:41.560Z,472.00
2023-05-04T02:24:41.628Z,471.00
2023-05-04T02:25:41.655Z,471.00
2023-05-04T02:26:41.629Z,469.00
2023-05-04T02:27:41.705Z,473.00
2023-05-04T02:28:41.761Z,472.00
2023-05-04T02:29:41.815Z,471.00
2023-05-04T02:30:41.861Z,470.00
2023-05-04T02:31:41.866Z,470.00
2023-05-04T02:32:41.876Z,471.00
2023-05-04T02:33:41.933Z,471.00
2023-05-04T02:34:42.008Z,471.00
2023-05-04T02:35:42.102Z,472.00
2023-05-04T02:36:42.120Z,473.00
2023-05-04T02:37:42.181Z,474.00
2023-05-04T02:38:42.236Z,472.00
2023-05-04T02:39:42.317Z,474.00
2023-05-04T02:40:42.350Z,472.00
2023-05-04T02:41:42.422Z,473.00
2023-05-04T02:42:42.465Z,473.00
2023-05-04T02:43:42.527Z,469.00
2023-05-04T02:44:42.573Z,470.00
2023-05-04T02:45:42.758Z,471.00
2023-05-04T02:46:42.710Z,472.00
2023-05-04T02:47:42.784Z,474.00
2023-05-04T02:48:42.829Z,474.00
2023-05-04T02:49:42.868Z,474.00
2023-05-04T02:50:42.883Z,474.00
2023-05-04T02:51:42.944Z,473.00
2023-05-04T02:52:42.995Z,471.00
2023-05-04T02:53:43.064Z,471.00
2023-05-04T02:54:43.116Z,469.00
2023-05-04T02:55:43.213Z,471.00
2023-05-04T02:56:43.241Z,472.00
2023-05-04T02:57:43.269Z,472.00
2023-05-04T02:58:43.356Z,474.00
2023-05-04T02:59:43.428Z,477.00
2023-05-04T03:00:43.478Z,477.00
2023-05-04T03:01:43.628Z,475.00
2023-05-04T03:02:43.618Z,475.00
2023-05-04T03:03:43.622Z,476.00
2023-05-04T03:04:43.730Z,480.00
2023-05-04T03:05:43.749Z,484.00
2023-05-04T03:06:43.820Z,484.00
2023-05-04T03:07:43.874Z,480.00
2023-05-04T03:08:43.941Z,479.00
2023-05-04T03:09:46.767Z,478.00
2023-05-04T03:10:43.999Z,477.00
2023-05-04T03:11:43.956Z,479.00
2023-05-04T03:12:44.039Z,477.00
2023-05-04T03:13:43.930Z,477.00
2023-05-04T03:14:43.987Z,476.00
2023-05-04T03:15:43.952Z,474.00
2023-05-04T03:16:43.984Z,472.00
2023-05-04T03:17:43.980Z,471.00
2023-05-04T03:18:43.902Z,471.00
2023-05-04T03:19:43.961Z,473.00
2023-05-04T03:20:43.913Z,473.00
2023-05-04T03:21:43.913Z,475.00
2023-05-04T03:22:43.906Z,476.00
2023-05-04T03:23:43.892Z,476.00
2023-05-04T03:24:43.915Z,475.00
2023-05-04T03:25:43.847Z,477.00
2023-05-04T03:26:43.857Z,478.00
2023-05-04T03:27:43.900Z,477.00
2023-05-04T03:28:43.867Z,481.00
2023-05-04T03:29:43.852Z,481.00
2023-05-04T03:30:43.854Z,481.00
2023-05-04T03:31:43.890Z,481.00
2023-05-04T03:32:43.836Z,480.00
2023-05-04T03:33:43.799Z,479.00
2023-05-04T03:34:43.808Z,480.00
2023-05-04T03:35:43.826Z,480.00
2023-05-04T03:36:43.820Z,479.00
2023-05-04T03:37:43.777Z,478.00
2023-05-04T03:38:43.837Z,478.00
2023-05-04T03:39:43.825Z,477.00
2023-05-04T03:40:43.770Z,474.00
2023-05-04T03:41:43.841Z,472.00
2023-05-04T03:42:43.766Z,472.00
2023-05-04T03:43:43.766Z,471.00
2023-05-04T03:44:43.767Z,471.00
2023-05-04T03:45:43.719Z,472.00
2023-05-04T03:46:43.698Z,474.00
2023-05-04T03:47:43.745Z,476.00
2023-05-04T03:48:43.700Z,477.00
2023-05-04T03:49:43.730Z,478.00
2023-05-04T03:50:43.690Z,479.00
2023-05-04T03:51:43.661Z,479.00
2023-05-04T03:52:43.699Z,480.00
2023-05-04T03:53:44.829Z,482.00
2023-05-04T03:54:43.704Z,483.00
2023-05-04T03:55:43.665Z,485.00
2023-05-04T03:56:43.648Z,487.00
2023-05-04T03:57:43.664Z,487.00
2023-05-04T03:58:43.659Z,487.00
2023-05-04T03:59:43.709Z,487.00
2023-05-04T04:00:43.729Z,486.00
2023-05-04T04:01:43.770Z,486.00
2023-05-04T04:02:43.866Z,485.00
2023-05-04T04:03:43.945Z,485.00
2023-05-04T04:04:43.946Z,486.00
2023-05-04T04:05:43.911Z,486.00
2023-05-04T04:06:43.941Z,486.00
2023-05-04T04:07:43.985Z,485.00
2023-05-04T04:08:44.003Z,483.00
2023-05-04T04:09:44.040Z,483.00
2023-05-04T04:10:44.089Z,485.00
2023-05-04T04:11:44.153Z,486.00
2023-05-04T04:12:44.215Z,486.00
2023-05-04T04:13:44.277Z,487.00
2023-05-04T04:14:44.261Z,489.00
2023-05-04T04:15:44.333Z,489.00
2023-05-04T04:16:44.504Z,489.00
2023-05-04T04:17:44.401Z,488.00
2023-05-04T04:18:44.438Z,486.00
2023-05-04T04:19:44.456Z,484.00
2023-05-04T04:20:44.532Z,484.00
2023-05-04T04:21:44.502Z,483.00
2023-05-04T04:22:44.526Z,483.00
2023-05-04T04:23:44.677Z,484.00
2023-05-04T04:24:44.630Z,483.00
2023-05-04T04:25:44.684Z,485.00
2023-05-04T04:26:44.674Z,485.00
2023-05-04T04:27:44.712Z,486.00
2023-05-04T04:28:44.800Z,489.00
2023-05-04T04:29:44.814Z,490.00
2023-05-04T04:30:44.884Z,491.00
2023-05-04T04:31:44.931Z,488.00
2023-05-04T04:32:44.953Z,486.00
2023-05-04T04:33:44.973Z,486.00
2023-05-04T04:34:45.067Z,486.00
2023-05-04T04:35:44.998Z,485.00
2023-05-04T04:36:45.089Z,485.00
2023-05-04T04:37:45.081Z,484.00
2023-05-04T04:38:45.096Z,483.00
2023-05-04T04:39:45.801Z,481.00
2023-05-04T04:40:45.166Z,484.00
2023-05-04T04:41:45.794Z,484.00
2023-05-04T04:42:45.190Z,483.00
2023-05-04T04:43:45.222Z,484.00
2023-05-04T04:44:45.257Z,482.00
2023-05-04T04:45:45.344Z,482.00
2023-05-04T04:46:45.342Z,484.00
2023-05-04T04:47:45.360Z,484.00
2023-05-04T04:48:45.338Z,485.00
2023-05-04T04:49:45.301Z,488.00
2023-05-04T04:50:45.349Z,489.00
2023-05-04T04:51:45.300Z,489.00
2023-05-04T04:52:45.327Z,489.00
2023-05-04T04:53:45.321Z,490.00
2023-05-04T04:54:45.318Z,490.00
2023-05-04T04:55:45.306Z,492.00
2023-05-04T04:56:45.304Z,495.00
2023-05-04T04:57:45.323Z,493.00
2023-05-04T04:58:45.324Z,492.00
2023-05-04T04:59:45.352Z,492.00
2023-05-04T05:00:45.448Z,491.00
2023-05-04T05:01:52.947Z,489.00
2023-05-04T05:02:45.365Z,488.00
2023-05-04T05:03:45.349Z,488.00
2023-05-04T05:04:45.383Z,489.00
2023-05-04T05:05:45.338Z,488.00
2023-05-04T05:06:45.695Z,488.00
2023-05-04T05:07:45.299Z,488.00
2023-05-04T05:08:45.355Z,484.00
2023-05-04T05:09:45.258Z,484.00
2023-05-04T05:10:45.333Z,486.00
2023-05-04T05:11:45.308Z,487.00
2023-05-04T05:12:45.369Z,489.00
2023-05-04T05:13:45.297Z,490.00
2023-05-04T05:14:45.234Z,489.00
2023-05-04T05:15:45.307Z,488.00
2023-05-04T05:16:45.352Z,484.00
2023-05-04T05:17:45.285Z,483.00
2023-05-04T05:18:45.282Z,480.00
2023-05-04T05:19:45.242Z,478.00
2023-05-04T05:20:45.226Z,476.00
2023-05-04T05:21:45.255Z,475.00
2023-05-04T05:22:45.274Z,477.00
2023-05-04T05:23:45.343Z,475.00
2023-05-04T05:24:45.313Z,473.00
2023-05-04T05:25:45.315Z,469.00
2023-05-04T05:26:45.392Z,468.00
2023-05-04T05:27:45.363Z,465.00
2023-05-04T05:28:45.401Z,464.00
2023-05-04T05:29:45.400Z,464.00
2023-05-04T05:30:45.596Z,465.00
2023-05-04T05:31:45.422Z,466.00
2023-05-04T05:32:47.660Z,464.00
2023-05-04T05:33:45.427Z,466.00
2023-05-04T05:34:45.749Z,466.00
2023-05-04T05:35:45.436Z,467.00
2023-05-04T05:36:45.453Z,466.00
2023-05-04T05:37:45.460Z,466.00
2023-05-04T05:38:46.338Z,469.00
2023-05-04T05:39:45.720Z,469.00
2023-05-04T05:40:45.479Z,469.00
2023-05-04T05:41:45.575Z,472.00
2023-05-04T05:42:45.420Z,472.00
2023-05-04T05:43:45.393Z,470.00
2023-05-04T05:44:46.038Z,468.00
2023-05-04T05:47:12.833Z,461.00
2023-05-04T05:48:05.268Z,464.00
2023-05-04T05:49:05.252Z,461.00
2023-05-04T05:50:06.261Z,463.00
2023-05-04T05:51:05.185Z,462.00
2023-05-04T05:52:05.100Z,462.00
2023-05-04T05:53:05.167Z,462.00
2023-05-04T05:54:05.171Z,460.00
2023-05-04T05:55:05.111Z,457.00
2023-05-04T05:56:05.624Z,457.00
2023-05-04T05:57:05.096Z,454.00
2023-05-04T05:58:05.138Z,455.00
2023-05-04T05:59:05.113Z,457.00
2023-05-04T06:00:05.310Z,458.00
2023-05-04T06:01:05.556Z,455.00
2023-05-04T06:02:05.081Z,454.00
2023-05-04T06:03:05.124Z,453.00
2023-05-04T06:04:05.365Z,452.00
2023-05-04T06:05:05.103Z,451.00
2023-05-04T06:06:05.157Z,451.00
2023-05-04T06:07:05.032Z,449.00
2023-05-04T06:08:05.098Z,449.00
2023-05-04T06:09:05.186Z,450.00
2023-05-04T06:10:05.419Z,454.00
2023-05-04T06:11:05.303Z,452.00
2023-05-04T06:12:05.332Z,449.00
2023-05-04T06:13:05.345Z,448.00
2023-05-04T06:14:05.360Z,445.00
2023-05-04T06:15:05.424Z,446.00
2023-05-04T06:16:05.585Z,444.00
2023-05-04T06:17:05.466Z,442.00
2023-05-04T06:18:05.597Z,442.00
2023-05-04T06:19:05.625Z,442.00
2023-05-04T06:20:06.155Z,445.00
2023-05-04T06:21:05.784Z,445.00
2023-05-04T06:22:05.706Z,445.00
2023-05-04T06:23:05.792Z,448.00
2023-05-04T06:24:05.796Z,452.00
2023-05-04T06:25:07.898Z,450.00
2023-05-04T06:26:05.800Z,446.00
2023-05-04T06:27:05.733Z,441.00
2023-05-04T06:28:05.718Z,440.00
2023-05-04T06:29:05.734Z,441.00
2023-05-04T06:30:05.919Z,445.00
2023-05-04T06:31:05.689Z,442.00
2023-05-04T06:32:06.026Z,445.00
2023-05-04T06:33:05.681Z,443.00
2023-05-04T06:34:06.604Z,444.00
2023-05-04T06:35:05.617Z,442.00
2023-05-04T06:36:06.077Z,442.00
2023-05-04T06:37:05.664Z,441.00
2023-05-04T06:38:05.627Z,445.00
2023-05-04T06:39:05.721Z,446.00
2023-05-04T06:40:05.600Z,447.00
2023-05-04T06:41:06.658Z,448.00
2023-05-04T06:42:05.657Z,445.00
2023-05-04T06:43:05.646Z,443.00
2023-05-04T06:44:05.635Z,443.00
2023-05-04T06:45:05.714Z,445.00
2023-05-04T06:47:25.515Z,435.00
2023-05-04T06:48:25.515Z,435.00
2023-05-04T06:49:25.424Z,436.00
2023-05-04T06:50:25.518Z,443.00
2023-05-04T06:51:25.430Z,444.00
2023-05-04T06:52:25.486Z,446.00
2023-05-04T06:53:25.439Z,445.00
2023-05-04T06:54:25.389Z,446.00
2023-05-04T06:55:25.404Z,446.00
2023-05-04T06:56:25.677Z,445.00
2023-05-04T06:57:25.494Z,444.00
2023-05-04T06:58:25.373Z,442.00
2023-05-04T06:59:26.198Z,443.00
2023-05-04T07:00:25.392Z,445.00
2023-05-04T07:01:26.055Z,444.00
2023-05-04T07:02:25.403Z,445.00
2023-05-04T07:03:25.356Z,446.00
2023-05-04T07:04:25.313Z,444.00
2023-05-04T07:05:25.317Z,445.00
2023-05-04T07:06:25.329Z,446.00
2023-05-04T07:07:25.285Z,444.00
2023-05-04T07:08:25.367Z,442.00
2023-05-04T07:09:25.331Z,440.00
2023-05-04T07:10:25.287Z,440.00
2023-05-04T07:11:25.312Z,439.00
2023-05-04T07:12:25.264Z,439.00
2023-05-04T07:13:25.279Z,441.00
2023-05-04T07:14:27.183Z,440.00
2023-05-04T07:15:25.486Z,439.00
2023-05-04T07:16:25.543Z,437.00
2023-05-04T07:17:25.841Z,439.00
2023-05-04T07:18:25.575Z,440.00
2023-05-04T07:19:26.167Z,443.00
2023-05-04T07:20:26.201Z,441.00
2023-05-04T07:21:28.474Z,439.00
2023-05-04T07:22:25.675Z,437.00
2023-05-04T07:23:25.649Z,438.00
2023-05-04T07:24:26.714Z,437.00
2023-05-04T07:25:25.615Z,438.00
2023-05-04T07:26:25.730Z,438.00
2023-05-04T07:27:25.696Z,438.00
2023-05-04T07:28:25.673Z,435.00
2023-05-04T07:29:25.651Z,435.00
2023-05-04T07:30:25.660Z,436.00
2023-05-04T07:31:27.476Z,433.00
2023-05-04T07:32:25.726Z,432.00
2023-05-04T07:33:26.258Z,430.00
2023-05-04T07:34:37.894Z,431.00
2023-05-04T07:35:26.670Z,431.00
2023-05-04T07:36:25.749Z,431.00
2023-05-04T07:37:27.206Z,433.00
2023-05-04T07:38:25.541Z,433.00
2023-05-04T07:39:25.563Z,433.00
2023-05-04T07:40:25.532Z,434.00
2023-05-04T07:41:25.565Z,435.00
2023-05-04T07:42:25.633Z,433.00
2023-05-04T07:43:25.578Z,431.00
2023-05-04T07:44:25.545Z,430.00
2023-05-04T07:45:25.497Z,430.00
2023-05-04T07:46:25.520Z,430.00
2023-05-04T07:47:25.551Z,429.00
2023-05-04T07:48:26.554Z,429.00
2023-05-04T07:49:25.649Z,430.00
2023-05-04T07:50:25.754Z,428.00
2023-05-04T07:51:25.692Z,427.00
2023-05-04T07:52:25.809Z,428.00
2023-05-04T07:53:25.743Z,430.00
2023-05-04T07:54:25.778Z,433.00
2023-05-04T07:55:25.763Z,435.00
2023-05-04T07:56:25.815Z,433.00
2023-05-04T07:57:26.746Z,433.00
2023-05-04T07:58:25.781Z,433.00
2023-05-04T07:59:25.823Z,434.00
2023-05-04T08:00:25.805Z,431.00
2023-05-04T08:01:25.850Z,428.00
2023-05-04T08:02:26.039Z,428.00
2023-05-04T08:03:25.982Z,427.00
2023-05-04T08:04:25.973Z,427.00
2023-05-04T08:05:26.036Z,430.00
2023-05-04T08:06:26.212Z,430.00
2023-05-04T08:07:26.090Z,432.00
2023-05-04T08:08:26.057Z,434.00
2023-05-04T08:09:26.138Z,435.00
2023-05-04T08:10:26.724Z,434.00
2023-05-04T08:11:26.131Z,434.00
2023-05-04T08:12:26.192Z,434.00
2023-05-04T08:13:26.213Z,436.00
2023-05-04T08:14:26.252Z,434.00
2023-05-04T08:15:26.315Z,434.00
2023-05-04T08:16:26.317Z,433.00
2023-05-04T08:17:27.687Z,430.00
2023-05-04T08:18:26.371Z,430.00
2023-05-04T08:19:26.438Z,428.00
2023-05-04T08:20:26.474Z,428.00
2023-05-04T08:21:26.386Z,427.00
2023-05-04T08:22:26.660Z,429.00
2023-05-04T08:23:26.748Z,429.00
2023-05-04T08:24:26.517Z,430.00
2023-05-04T08:25:26.647Z,431.00
2023-05-04T08:26:26.632Z,431.00
2023-05-04T08:27:26.734Z,428.00
2023-05-04T08:28:26.634Z,429.00
2023-05-04T08:29:27.440Z,428.00
2023-05-04T08:30:26.760Z,432.00
2023-05-04T08:31:26.770Z,433.00
2023-05-04T08:32:27.282Z,432.00
2023-05-04T08:33:26.860Z,430.00
2023-05-04T08:34:26.809Z,428.00
2023-05-04T08:35:26.884Z,426.00
2023-05-04T08:36:26.889Z,427.00
2023-05-04T08:37:27.305Z,428.00
2023-05-04T08:38:26.905Z,430.00
2023-05-04T08:39:27.002Z,433.00
2023-05-04T08:40:26.911Z,436.00
2023-05-04T08:41:26.926Z,436.00
2023-05-04T08:42:27.074Z,437.00
2023-05-04T08:43:27.052Z,438.00
2023-05-04T08:44:27.132Z,436.00
2023-05-04T08:45:27.224Z,440.00
2023-05-04T08:46:27.207Z,438.00
2023-05-04T08:47:27.278Z,440.00
2023-05-04T08:48:27.280Z,438.00
2023-05-04T08:49:27.327Z,439.00
2023-05-04T08:50:27.409Z,436.00
2023-05-04T08:51:27.405Z,435.00
2023-05-04T08:52:27.760Z,437.00
2023-05-04T08:53:27.539Z,434.00
2023-05-04T08:54:27.515Z,434.00
2023-05-04T08:55:27.627Z,437.00
2023-05-04T08:56:28.180Z,439.00
2023-05-04T08:57:27.756Z,440.00
2023-05-04T08:58:27.790Z,439.00
2023-05-04T08:59:27.669Z,441.00
2023-05-04T09:00:27.839Z,440.00
2023-05-04T09:01:27.858Z,441.00
2023-05-04T09:02:28.805Z,438.00
2023-05-04T09:03:28.059Z,438.00
2023-05-04T09:04:29.499Z,438.00
2023-05-04T09:05:27.937Z,437.00
2023-05-04T09:06:28.031Z,435.00
2023-05-04T09:07:28.027Z,433.00
2023-05-04T09:08:28.043Z,432.00
2023-05-04T09:09:28.044Z,432.00
2023-05-04T09:10:29.642Z,432.00
2023-05-04T09:11:28.043Z,432.00
2023-05-04T09:12:28.184Z,432.00
2023-05-04T09:13:28.178Z,430.00
2023-05-04T09:14:28.117Z,430.00
2023-05-04T09:15:28.170Z,430.00
2023-05-04T09:16:28.219Z,432.00
2023-05-04T09:17:29.325Z,429.00
2023-05-04T09:18:28.363Z,430.00
2023-05-04T09:19:28.338Z,435.00
2023-05-04T09:20:28.332Z,435.00
2023-05-04T09:21:28.334Z,433.00
2023-05-04T09:22:28.876Z,431.00
2023-05-04T09:23:28.388Z,428.00
2023-05-04T09:24:28.360Z,427.00
2023-05-04T09:25:28.393Z,428.00
2023-05-04T09:26:28.373Z,429.00
2023-05-04T09:27:28.395Z,432.00
2023-05-04T09:28:28.919Z,431.00
2023-05-04T09:29:28.573Z,431.00
2023-05-04T09:30:28.577Z,431.00
2023-05-04T09:31:28.680Z,429.00
2023-05-04T09:32:28.716Z,430.00
2023-05-04T09:33:28.624Z,431.00
2023-05-04T09:34:28.669Z,433.00
2023-05-04T09:35:33.233Z,432.00
2023-05-04T09:36:29.663Z,433.00
2023-05-04T09:37:28.752Z,435.00
2023-05-04T09:38:28.668Z,435.00
2023-05-04T09:39:29.185Z,435.00
2023-05-04T09:40:28.641Z,434.00
2023-05-04T09:41:28.666Z,435.00
2023-05-04T09:42:28.591Z,436.00
2023-05-04T09:43:28.783Z,437.00
2023-05-04T09:44:29.630Z,437.00
2023-05-04T09:45:28.674Z,437.00
2023-05-04T09:46:28.749Z,437.00
2023-05-04T09:47:28.650Z,437.00
2023-05-04T09:48:28.823Z,435.00
2023-05-04T09:49:28.720Z,435.00
2023-05-04T09:50:28.876Z,435.00
2023-05-04T09:51:28.857Z,435.00
2023-05-04T09:52:28.814Z,436.00
2023-05-04T09:53:29.267Z,436.00
2023-05-04T09:54:28.829Z,434.00
2023-05-04T09:55:28.877Z,432.00
2023-05-04T09:56:28.920Z,432.00
2023-05-04T09:57:28.892Z,433.00
2023-05-04T09:58:28.889Z,433.00
2023-05-04T09:59:28.928Z,435.00
2023-05-04T10:00:29.125Z,433.00
2023-05-04T10:01:29.100Z,437.00
2023-05-04T10:02:29.209Z,436.00
2023-05-04T10:03:30.285Z,436.00
2023-05-04T10:04:29.932Z,434.00
2023-05-04T10:05:29.125Z,434.00
2023-05-04T10:06:29.302Z,438.00
2023-05-04T10:07:29.782Z,437.00
2023-05-04T10:08:29.761Z,437.00
2023-05-04T10:09:29.189Z,436.00
2023-05-04T10:10:29.248Z,437.00
2023-05-04T10:11:29.426Z,435.00
2023-05-04T10:12:29.689Z,437.00
2023-05-04T10:13:29.538Z,437.00
2023-05-04T10:14:29.378Z,437.00
2023-05-04T10:15:29.425Z,439.00
2023-05-04T10:16:29.433Z,438.00
2023-05-04T10:17:29.452Z,435.00
2023-05-04T10:18:29.853Z,435.00
2023-05-04T10:19:29.494Z,437.00
2023-05-04T10:20:29.616Z,437.00
2023-05-04T10:21:29.672Z,435.00
2023-05-04T10:22:30.746Z,435.00
2023-05-04T10:23:29.894Z,433.00
2023-05-04T10:24:29.666Z,428.00
2023-05-04T10:25:29.695Z,428.00
2023-05-04T10:26:29.716Z,428.00
2023-05-04T10:27:29.806Z,428.00
2023-05-04T10:28:30.253Z,429.00
2023-05-04T10:29:29.811Z,429.00
2023-05-04T10:30:29.939Z,429.00
2023-05-04T10:31:29.888Z,427.00
2023-05-04T10:32:29.896Z,427.00
2023-05-04T10:33:30.359Z,428.00
2023-05-04T10:34:29.969Z,429.00
2023-05-04T10:35:29.955Z,427.00
2023-05-04T10:36:29.956Z,426.00
2023-05-04T10:37:30.069Z,431.00
2023-05-04T10:38:30.293Z,428.00
2023-05-04T10:39:30.092Z,427.00
2023-05-04T10:40:30.105Z,423.00
2023-05-04T10:41:30.125Z,423.00
2023-05-04T10:42:30.220Z,426.00
2023-05-04T10:43:30.274Z,430.00
2023-05-04T10:44:30.276Z,429.00
2023-05-04T10:45:30.280Z,430.00
2023-05-04T10:46:30.328Z,427.00
2023-05-04T10:47:30.337Z,421.00
2023-05-04T10:48:30.759Z,421.00
2023-05-04T10:49:30.350Z,425.00
2023-05-04T10:50:30.389Z,424.00
2023-05-04T10:51:42.362Z,423.00
2023-05-04T10:52:31.400Z,423.00
2023-05-04T10:53:30.708Z,426.00
2023-05-04T10:54:30.412Z,422.00
2023-05-04T10:55:30.369Z,425.00
2023-05-04T10:56:30.324Z,408.00
2023-05-04T10:57:30.333Z,413.00
2023-05-04T10:58:30.346Z,416.00
2023-05-04T10:59:30.297Z,417.00
2023-05-04T11:00:30.335Z,421.00
2023-05-04T11:01:30.308Z,421.00
2023-05-04T11:02:33.446Z,421.00
2023-05-04T11:03:31.035Z,422.00
2023-05-04T11:04:30.328Z,424.00
2023-05-04T11:05:30.286Z,422.00
2023-05-04T11:06:30.285Z,421.00
2023-05-04T11:07:30.306Z,424.00
2023-05-04T11:08:31.426Z,423.00
2023-05-04T11:09:30.317Z,424.00
2023-05-04T11:10:30.331Z,425.00
2023-05-04T11:11:30.238Z,424.00
2023-05-04T11:12:30.362Z,425.00
2023-05-04T11:13:30.772Z,425.00
2023-05-04T11:14:30.248Z,425.00
2023-05-04T11:15:30.264Z,425.00
2023-05-04T11:16:30.249Z,424.00
2023-05-04T11:17:30.239Z,426.00
2023-05-04T11:18:30.378Z,425.00
2023-05-04T11:19:30.188Z,424.00
2023-05-04T11:20:30.376Z,424.00
2023-05-04T11:21:30.179Z,424.00
2023-05-04T11:22:30.210Z,424.00
2023-05-04T11:23:30.289Z,424.00
2023-05-04T11:24:32.714Z,423.00
2023-05-04T11:25:30.119Z,424.00
2023-05-04T11:26:30.140Z,424.00
2023-05-04T11:27:30.229Z,425.00
2023-05-04T11:28:30.236Z,427.00
2023-05-04T11:29:30.248Z,428.00
2023-05-04T11:30:30.158Z,429.00
2023-05-04T11:31:30.146Z,432.00
2023-05-04T11:32:30.176Z,431.00
2023-05-04T11:33:30.139Z,431.00
2023-05-04T11:34:30.276Z,430.00
2023-05-04T11:35:30.090Z,431.00
2023-05-04T11:36:30.109Z,431.00
2023-05-04T11:37:30.097Z,432.00
2023-05-04T11:38:30.071Z,436.00
2023-05-04T11:39:30.138Z,434.00
2023-05-04T11:40:30.053Z,436.00
2023-05-04T11:41:30.072Z,436.00
2023-05-04T11:42:30.052Z,434.00
2023-05-04T11:43:30.185Z,432.00
2023-05-04T11:44:30.079Z,430.00
2023-05-04T11:45:30.029Z,432.00
2023-05-04T11:46:30.037Z,432.00
2023-05-04T11:47:29.991Z,433.00
2023-05-04T11:48:30.049Z,430.00
2023-05-04T11:49:30.068Z,429.00
2023-05-04T11:50:30.040Z,431.00
2023-05-04T11:51:30.036Z,431.00
2023-05-04T11:52:29.953Z,429.00
2023-05-04T11:53:30.005Z,429.00
2023-05-04T11:54:29.975Z,428.00
2023-05-04T11:55:29.931Z,433.00
2023-05-04T11:56:29.974Z,430.00
2023-05-04T11:57:29.948Z,429.00
2023-05-04T11:58:29.925Z,429.00
2023-05-04T11:59:30.058Z,426.00
2023-05-04T12:00:29.941Z,427.00
2023-05-04T12:01:29.924Z,429.00
2023-05-04T12:02:29.903Z,427.00
2023-05-04T12:03:48.048Z,426.00
2023-05-04T12:04:30.955Z,427.00
2023-05-04T12:05:29.898Z,427.00
2023-05-04T12:06:29.884Z,427.00
2023-05-04T12:07:29.876Z,426.00
2023-05-04T12:08:29.863Z,427.00
2023-05-04T12:09:29.910Z,427.00
2023-05-04T12:10:29.847Z,429.00
2023-05-04T12:11:29.826Z,427.00
2023-05-04T12:12:32.272Z,425.00
2023-05-04T12:13:29.838Z,425.00
2023-05-04T12:14:29.852Z,423.00
2023-05-04T12:15:29.807Z,420.00
2023-05-04T12:16:29.883Z,423.00
2023-05-04T12:17:29.820Z,423.00
2023-05-04T12:18:29.910Z,425.00
2023-05-04T12:19:29.760Z,427.00
2023-05-04T12:20:29.767Z,428.00
2023-05-04T12:21:29.739Z,429.00
2023-05-04T12:22:29.747Z,426.00
2023-05-04T12:23:29.698Z,425.00
2023-05-04T12:24:29.750Z,424.00
2023-05-04T12:25:29.722Z,427.00
2023-05-04T12:26:29.749Z,428.00
2023-05-04T12:27:29.788Z,429.00
2023-05-04T12:28:29.682Z,430.00
2023-05-04T12:29:29.722Z,435.00
2023-05-04T12:30:29.695Z,436.00
2023-05-04T12:31:29.738Z,437.00